sensor_id;sensor_type;location;lat;lon;timestamp;P1;durP1;ratioP1;P2;durP2;ratioP2
74974;SDS011;68459;50.836;19.138;2024-02-04T00:00:14;3.05;;;1.00;;
74974;SDS011;68459;50.836;19.138;2024-02-04T00:03:40;1.80;;;1.10;;
74974;SDS011;68459;50.836;19.138;2024-02-04T00:06:44;2.28;;;1.17;;
74974;SDS011;68459;50.836;19.138;2024-02-04T00:09:49;3.80;;;2.00;;
74974;SDS011;68459;50.836;19.138;2024-02-04T00:12:53;2.55;;;1.38;;
74974;SDS011;68459;50.836;19.138;2024-02-04T00:15:58;2.67;;;1.40;;
74974;SDS011;68459;50.836;19.138;2024-02-04T00:19:02;2.60;;;1.67;;
74974;SDS011;68459;50.836;19.138;2024-02-04T00:22:06;2.75;;;1.40;;
74974;SDS011;68459;50.836;19.138;2024-02-04T00:25:12;3.53;;;1.75;;
74974;SDS011;68459;50.836;19.138;2024-02-04T00:28:17;2.33;;;1.50;;
74974;SDS011;68459;50.836;19.138;2024-02-04T00:31:22;2.63;;;1.38;;
74974;SDS011;68459;50.836;19.138;2024-02-04T00:34:26;3.15;;;1.42;;
74974;SDS011;68459;50.836;19.138;2024-02-04T00:37:30;3.20;;;1.40;;
74974;SDS011;68459;50.836;19.138;2024-02-04T00:40:35;4.18;;;1.35;;
74974;SDS011;68459;50.836;19.138;2024-02-04T00:43:40;3.60;;;1.60;;
74974;SDS011;68459;50.836;19.138;2024-02-04T00:46:43;2.67;;;1.17;;
74974;SDS011;68459;50.836;19.138;2024-02-04T00:49:47;6.03;;;1.30;;
74974;SDS011;68459;50.836;19.138;2024-02-04T00:52:51;1.73;;;0.90;;
74974;SDS011;68459;50.836;19.138;2024-02-04T00:55:57;1.65;;;0.80;;
74974;SDS011;68459;50.836;19.138;2024-02-04T00:59:01;3.27;;;0.70;;
74974;SDS011;68459;50.836;19.138;2024-02-04T01:02:07;3.83;;;0.63;;
74974;SDS011;68459;50.836;19.138;2024-02-04T01:05:10;1.98;;;0.50;;
74974;SDS011;68459;50.836;19.138;2024-02-04T01:08:15;1.95;;;0.75;;
74974;SDS011;68459;50.836;19.138;2024-02-04T01:11:20;1.70;;;0.57;;
74974;SDS011;68459;50.836;19.138;2024-02-04T01:14:24;1.30;;;0.32;;
74974;SDS011;68459;50.836;19.138;2024-02-04T01:17:28;1.23;;;0.40;;
74974;SDS011;68459;50.836;19.138;2024-02-04T01:20:33;0.80;;;0.30;;
74974;SDS011;68459;50.836;19.138;2024-02-04T01:23:38;2.00;;;0.38;;
74974;SDS011;68459;50.836;19.138;2024-02-04T01:26:43;1.17;;;0.38;;
74974;SDS011;68459;50.836;19.138;2024-02-04T01:29:47;1.87;;;0.53;;
74974;SDS011;68459;50.836;19.138;2024-02-04T01:32:51;0.90;;;0.30;;
74974;SDS011;68459;50.836;19.138;2024-02-04T01:35:55;1.67;;;0.60;;
74974;SDS011;68459;50.836;19.138;2024-02-04T01:39:00;2.22;;;0.55;;
74974;SDS011;68459;50.836;19.138;2024-02-04T01:42:06;0.80;;;0.30;;
74974;SDS011;68459;50.836;19.138;2024-02-04T01:45:10;1.35;;;0.50;;
74974;SDS011;68459;50.836;19.138;2024-02-04T01:48:14;2.28;;;0.40;;
74974;SDS011;68459;50.836;19.138;2024-02-04T01:51:18;0.70;;;0.20;;
74974;SDS011;68459;50.836;19.138;2024-02-04T01:54:23;0.93;;;0.25;;
74974;SDS011;68459;50.836;19.138;2024-02-04T01:57:30;0.93;;;0.45;;
74974;SDS011;68459;50.836;19.138;2024-02-04T02:00:36;2.33;;;0.50;;
74974;SDS011;68459;50.836;19.138;2024-02-04T02:03:43;1.50;;;0.40;;
74974;SDS011;68459;50.836;19.138;2024-02-04T02:06:46;2.17;;;0.50;;
74974;SDS011;68459;50.836;19.138;2024-02-04T02:09:51;1.77;;;0.50;;
74974;SDS011;68459;50.836;19.138;2024-02-04T02:12:58;2.20;;;0.50;;
74974;SDS011;68459;50.836;19.138;2024-02-04T02:16:09;2.20;;;0.50;;
74974;SDS011;68459;50.836;19.138;2024-02-04T02:19:22;2.65;;;0.65;;
74974;SDS011;68459;50.836;19.138;2024-02-04T02:22:45;1.50;;;0.50;;
74974;SDS011;68459;50.836;19.138;2024-02-04T02:25:55;2.60;;;0.57;;
74974;SDS011;68459;50.836;19.138;2024-02-04T02:28:59;1.40;;;0.52;;
74974;SDS011;68459;50.836;19.138;2024-02-04T02:32:03;2.37;;;0.50;;
74974;SDS011;68459;50.836;19.138;2024-02-04T02:35:08;1.77;;;0.75;;
74974;SDS011;68459;50.836;19.138;2024-02-04T02:38:14;3.45;;;0.70;;
74974;SDS011;68459;50.836;19.138;2024-02-04T02:41:29;1.50;;;0.40;;
74974;SDS011;68459;50.836;19.138;2024-02-04T02:44:34;1.88;;;0.57;;
74974;SDS011;68459;50.836;19.138;2024-02-04T02:50:44;2.45;;;0.70;;
74974;SDS011;68459;50.836;19.138;2024-02-04T02:53:48;2.03;;;0.70;;
74974;SDS011;68459;50.836;19.138;2024-02-04T02:56:53;1.67;;;0.65;;
74974;SDS011;68459;50.836;19.138;2024-02-04T02:59:57;2.22;;;0.70;;
74974;SDS011;68459;50.836;19.138;2024-02-04T03:03:01;3.47;;;0.60;;
74974;SDS011;68459;50.836;19.138;2024-02-04T03:06:06;2.70;;;0.80;;
74974;SDS011;68459;50.836;19.138;2024-02-04T03:09:10;1.52;;;0.57;;
74974;SDS011;68459;50.836;19.138;2024-02-04T03:12:16;3.35;;;0.77;;
74974;SDS011;68459;50.836;19.138;2024-02-04T03:15:20;1.67;;;0.75;;
74974;SDS011;68459;50.836;19.138;2024-02-04T03:18:24;1.83;;;0.70;;
74974;SDS011;68459;50.836;19.138;2024-02-04T03:21:29;1.00;;;0.43;;
74974;SDS011;68459;50.836;19.138;2024-02-04T03:24:32;1.33;;;0.40;;
74974;SDS011;68459;50.836;19.138;2024-02-04T03:27:39;1.20;;;0.60;;
74974;SDS011;68459;50.836;19.138;2024-02-04T03:30:43;3.45;;;0.52;;
74974;SDS011;68459;50.836;19.138;2024-02-04T03:33:47;1.53;;;0.60;;
74974;SDS011;68459;50.836;19.138;2024-02-04T03:36:52;1.65;;;0.55;;
74974;SDS011;68459;50.836;19.138;2024-02-04T03:39:57;2.30;;;0.50;;
74974;SDS011;68459;50.836;19.138;2024-02-04T03:43:02;2.22;;;0.60;;
74974;SDS011;68459;50.836;19.138;2024-02-04T03:46:07;2.58;;;0.63;;
74974;SDS011;68459;50.836;19.138;2024-02-04T03:49:11;6.38;;;0.60;;
74974;SDS011;68459;50.836;19.138;2024-02-04T03:52:15;1.88;;;0.80;;
74974;SDS011;68459;50.836;19.138;2024-02-04T03:55:19;2.90;;;0.77;;
74974;SDS011;68459;50.836;19.138;2024-02-04T03:58:24;2.75;;;0.50;;
74974;SDS011;68459;50.836;19.138;2024-02-04T04:01:32;3.10;;;0.90;;
74974;SDS011;68459;50.836;19.138;2024-02-04T04:04:36;2.70;;;0.70;;
74974;SDS011;68459;50.836;19.138;2024-02-04T04:07:43;2.25;;;0.70;;
74974;SDS011;68459;50.836;19.138;2024-02-04T04:10:47;1.30;;;0.55;;
74974;SDS011;68459;50.836;19.138;2024-02-04T04:13:54;1.73;;;0.75;;
74974;SDS011;68459;50.836;19.138;2024-02-04T04:16:58;1.83;;;0.40;;
74974;SDS011;68459;50.836;19.138;2024-02-04T04:20:03;1.17;;;0.40;;
74974;SDS011;68459;50.836;19.138;2024-02-04T04:23:08;2.45;;;0.95;;
74974;SDS011;68459;50.836;19.138;2024-02-04T04:26:12;1.30;;;0.50;;
74974;SDS011;68459;50.836;19.138;2024-02-04T04:29:17;2.67;;;0.57;;
74974;SDS011;68459;50.836;19.138;2024-02-04T04:32:21;2.50;;;0.70;;
74974;SDS011;68459;50.836;19.138;2024-02-04T04:35:25;5.00;;;0.90;;
74974;SDS011;68459;50.836;19.138;2024-02-04T04:38:29;2.75;;;0.40;;
74974;SDS011;68459;50.836;19.138;2024-02-04T04:41:33;4.47;;;0.82;;
74974;SDS011;68459;50.836;19.138;2024-02-04T04:44:38;3.28;;;0.65;;
74974;SDS011;68459;50.836;19.138;2024-02-04T04:47:42;2.20;;;0.70;;
74974;SDS011;68459;50.836;19.138;2024-02-04T04:50:46;3.50;;;0.65;;
74974;SDS011;68459;50.836;19.138;2024-02-04T04:53:50;2.78;;;0.52;;
74974;SDS011;68459;50.836;19.138;2024-02-04T04:56:54;2.00;;;0.50;;
74974;SDS011;68459;50.836;19.138;2024-02-04T05:00:00;2.88;;;0.45;;
74974;SDS011;68459;50.836;19.138;2024-02-04T05:03:08;1.73;;;0.52;;
74974;SDS011;68459;50.836;19.138;2024-02-04T05:06:12;1.93;;;0.50;;
74974;SDS011;68459;50.836;19.138;2024-02-04T05:09:16;3.42;;;0.63;;
74974;SDS011;68459;50.836;19.138;2024-02-04T05:12:20;2.72;;;0.70;;
74974;SDS011;68459;50.836;19.138;2024-02-04T05:15:25;2.75;;;0.75;;
74974;SDS011;68459;50.836;19.138;2024-02-04T05:18:31;5.72;;;0.68;;
74974;SDS011;68459;50.836;19.138;2024-02-04T05:21:37;2.33;;;0.52;;
74974;SDS011;68459;50.836;19.138;2024-02-04T05:24:42;5.78;;;0.90;;
74974;SDS011;68459;50.836;19.138;2024-02-04T05:27:46;4.30;;;0.77;;
74974;SDS011;68459;50.836;19.138;2024-02-04T05:30:51;4.22;;;1.00;;
74974;SDS011;68459;50.836;19.138;2024-02-04T05:33:55;2.08;;;0.63;;
74974;SDS011;68459;50.836;19.138;2024-02-04T05:37:00;2.90;;;1.00;;
74974;SDS011;68459;50.836;19.138;2024-02-04T05:40:04;1.30;;;0.47;;
74974;SDS011;68459;50.836;19.138;2024-02-04T05:43:09;3.47;;;0.73;;
74974;SDS011;68459;50.836;19.138;2024-02-04T05:46:15;4.90;;;0.85;;
74974;SDS011;68459;50.836;19.138;2024-02-04T05:49:19;3.97;;;0.90;;
74974;SDS011;68459;50.836;19.138;2024-02-04T05:52:23;3.85;;;1.00;;
74974;SDS011;68459;50.836;19.138;2024-02-04T05:55:27;3.38;;;1.00;;
74974;SDS011;68459;50.836;19.138;2024-02-04T05:58:31;3.20;;;1.20;;
74974;SDS011;68459;50.836;19.138;2024-02-04T06:01:37;5.28;;;1.40;;
74974;SDS011;68459;50.836;19.138;2024-02-04T06:04:41;3.10;;;0.90;;
74974;SDS011;68459;50.836;19.138;2024-02-04T06:07:45;4.03;;;1.40;;
74974;SDS011;68459;50.836;19.138;2024-02-04T06:10:49;2.75;;;1.02;;
74974;SDS011;68459;50.836;19.138;2024-02-04T06:13:53;2.83;;;0.80;;
74974;SDS011;68459;50.836;19.138;2024-02-04T06:16:58;3.05;;;0.98;;
74974;SDS011;68459;50.836;19.138;2024-02-04T06:20:02;1.13;;;0.57;;
74974;SDS011;68459;50.836;19.138;2024-02-04T06:23:08;2.22;;;0.95;;
74974;SDS011;68459;50.836;19.138;2024-02-04T06:26:11;1.73;;;0.63;;
74974;SDS011;68459;50.836;19.138;2024-02-04T06:29:15;5.90;;;1.00;;
74974;SDS011;68459;50.836;19.138;2024-02-04T06:32:20;1.60;;;0.90;;
74974;SDS011;68459;50.836;19.138;2024-02-04T06:35:25;1.90;;;0.70;;
74974;SDS011;68459;50.836;19.138;2024-02-04T06:38:29;3.27;;;0.80;;
74974;SDS011;68459;50.836;19.138;2024-02-04T06:41:33;5.65;;;0.77;;
74974;SDS011;68459;50.836;19.138;2024-02-04T06:44:37;1.25;;;0.40;;
74974;SDS011;68459;50.836;19.138;2024-02-04T06:47:44;2.00;;;0.55;;
74974;SDS011;68459;50.836;19.138;2024-02-04T06:50:48;1.65;;;0.88;;
74974;SDS011;68459;50.836;19.138;2024-02-04T06:53:52;2.45;;;0.70;;
74974;SDS011;68459;50.836;19.138;2024-02-04T06:56:55;2.42;;;0.63;;
74974;SDS011;68459;50.836;19.138;2024-02-04T06:59:59;2.10;;;0.73;;
74974;SDS011;68459;50.836;19.138;2024-02-04T07:03:05;2.72;;;0.80;;
74974;SDS011;68459;50.836;19.138;2024-02-04T07:06:09;1.65;;;0.57;;
74974;SDS011;68459;50.836;19.138;2024-02-04T07:09:13;1.10;;;0.33;;
74974;SDS011;68459;50.836;19.138;2024-02-04T07:12:17;2.22;;;0.70;;
74974;SDS011;68459;50.836;19.138;2024-02-04T07:15:21;2.40;;;0.70;;
74974;SDS011;68459;50.836;19.138;2024-02-04T07:18:26;3.40;;;0.70;;
74974;SDS011;68459;50.836;19.138;2024-02-04T07:21:30;2.50;;;0.65;;
74974;SDS011;68459;50.836;19.138;2024-02-04T07:24:34;3.40;;;0.98;;
74974;SDS011;68459;50.836;19.138;2024-02-04T07:27:38;2.53;;;0.80;;
74974;SDS011;68459;50.836;19.138;2024-02-04T07:30:42;5.60;;;0.77;;
74974;SDS011;68459;50.836;19.138;2024-02-04T07:33:48;3.45;;;0.85;;
74974;SDS011;68459;50.836;19.138;2024-02-04T07:36:52;3.20;;;0.65;;
74974;SDS011;68459;50.836;19.138;2024-02-04T07:39:56;3.23;;;0.80;;
74974;SDS011;68459;50.836;19.138;2024-02-04T07:43:00;5.07;;;0.75;;
74974;SDS011;68459;50.836;19.138;2024-02-04T07:46:04;2.35;;;0.73;;
74974;SDS011;68459;50.836;19.138;2024-02-04T07:49:11;2.80;;;0.60;;
74974;SDS011;68459;50.836;19.138;2024-02-04T07:52:15;1.98;;;1.13;;
74974;SDS011;68459;50.836;19.138;2024-02-04T07:55:19;4.78;;;1.20;;
74974;SDS011;68459;50.836;19.138;2024-02-04T07:58:24;2.95;;;1.08;;
74974;SDS011;68459;50.836;19.138;2024-02-04T08:01:29;2.20;;;0.87;;
74974;SDS011;68459;50.836;19.138;2024-02-04T08:04:38;3.47;;;0.98;;
74974;SDS011;68459;50.836;19.138;2024-02-04T08:07:43;1.30;;;0.40;;
74974;SDS011;68459;50.836;19.138;2024-02-04T08:10:47;4.87;;;1.10;;
74974;SDS011;68459;50.836;19.138;2024-02-04T08:13:51;5.97;;;0.70;;
74974;SDS011;68459;50.836;19.138;2024-02-04T08:16:55;5.38;;;1.08;;
74974;SDS011;68459;50.836;19.138;2024-02-04T08:20:00;4.50;;;1.00;;
74974;SDS011;68459;50.836;19.138;2024-02-04T08:23:06;4.28;;;0.60;;
74974;SDS011;68459;50.836;19.138;2024-02-04T08:26:10;3.33;;;0.70;;
74974;SDS011;68459;50.836;19.138;2024-02-04T08:29:15;3.60;;;0.55;;
74974;SDS011;68459;50.836;19.138;2024-02-04T08:32:19;3.63;;;0.50;;
74974;SDS011;68459;50.836;19.138;2024-02-04T08:35:24;6.70;;;0.70;;
74974;SDS011;68459;50.836;19.138;2024-02-04T08:38:28;4.55;;;1.17;;
74974;SDS011;68459;50.836;19.138;2024-02-04T08:41:32;2.87;;;0.73;;
74974;SDS011;68459;50.836;19.138;2024-02-04T08:44:36;3.78;;;0.90;;
74974;SDS011;68459;50.836;19.138;2024-02-04T08:47:41;3.67;;;0.98;;
74974;SDS011;68459;50.836;19.138;2024-02-04T08:50:46;6.68;;;0.85;;
74974;SDS011;68459;50.836;19.138;2024-02-04T08:53:52;5.47;;;0.80;;
74974;SDS011;68459;50.836;19.138;2024-02-04T08:56:56;4.95;;;0.93;;
74974;SDS011;68459;50.836;19.138;2024-02-04T09:00:00;2.38;;;0.50;;
74974;SDS011;68459;50.836;19.138;2024-02-04T09:03:04;3.17;;;0.57;;
74974;SDS011;68459;50.836;19.138;2024-02-04T09:06:10;4.95;;;1.20;;
74974;SDS011;68459;50.836;19.138;2024-02-04T09:09:14;1.80;;;0.80;;
74974;SDS011;68459;50.836;19.138;2024-02-04T09:12:18;4.40;;;1.47;;
74974;SDS011;68459;50.836;19.138;2024-02-04T09:15:22;3.13;;;0.90;;
74974;SDS011;68459;50.836;19.138;2024-02-04T09:18:26;7.32;;;1.08;;
74974;SDS011;68459;50.836;19.138;2024-02-04T09:21:31;3.67;;;0.85;;
74974;SDS011;68459;50.836;19.138;2024-02-04T09:24:36;2.08;;;0.70;;
74974;SDS011;68459;50.836;19.138;2024-02-04T09:27:39;4.90;;;1.00;;
74974;SDS011;68459;50.836;19.138;2024-02-04T09:30:44;4.20;;;1.10;;
74974;SDS011;68459;50.836;19.138;2024-02-04T09:33:48;6.70;;;1.13;;
74974;SDS011;68459;50.836;19.138;2024-02-04T09:36:53;2.95;;;0.90;;
74974;SDS011;68459;50.836;19.138;2024-02-04T09:39:57;2.30;;;0.40;;
74974;SDS011;68459;50.836;19.138;2024-02-04T09:43:01;3.83;;;0.73;;
74974;SDS011;68459;50.836;19.138;2024-02-04T09:46:06;4.93;;;0.73;;
74974;SDS011;68459;50.836;19.138;2024-02-04T09:49:11;2.92;;;0.75;;
74974;SDS011;68459;50.836;19.138;2024-02-04T09:52:18;1.25;;;0.30;;
74974;SDS011;68459;50.836;19.138;2024-02-04T09:55:23;3.35;;;0.65;;
74974;SDS011;68459;50.836;19.138;2024-02-04T09:58:28;1.88;;;0.75;;
74974;SDS011;68459;50.836;19.138;2024-02-04T10:01:33;3.00;;;0.55;;
74974;SDS011;68459;50.836;19.138;2024-02-04T10:04:39;6.23;;;0.60;;
74974;SDS011;68459;50.836;19.138;2024-02-04T10:07:44;3.30;;;0.70;;
74974;SDS011;68459;50.836;19.138;2024-02-04T10:10:48;3.38;;;0.80;;
74974;SDS011;68459;50.836;19.138;2024-02-04T10:13:52;4.40;;;0.80;;
74974;SDS011;68459;50.836;19.138;2024-02-04T10:16:57;1.98;;;0.50;;
74974;SDS011;68459;50.836;19.138;2024-02-04T10:20:01;6.18;;;0.80;;
74974;SDS011;68459;50.836;19.138;2024-02-04T10:23:06;2.80;;;0.70;;
74974;SDS011;68459;50.836;19.138;2024-02-04T10:26:10;2.47;;;0.60;;
74974;SDS011;68459;50.836;19.138;2024-02-04T10:29:14;2.25;;;0.80;;
74974;SDS011;68459;50.836;19.138;2024-02-04T10:32:21;3.10;;;0.50;;
74974;SDS011;68459;50.836;19.138;2024-02-04T10:35:27;6.10;;;1.07;;
74974;SDS011;68459;50.836;19.138;2024-02-04T10:38:32;3.42;;;0.55;;
74974;SDS011;68459;50.836;19.138;2024-02-04T10:41:36;2.80;;;0.45;;
74974;SDS011;68459;50.836;19.138;2024-02-04T10:44:49;4.60;;;0.40;;
74974;SDS011;68459;50.836;19.138;2024-02-04T10:47:56;1.95;;;0.50;;
74974;SDS011;68459;50.836;19.138;2024-02-04T10:51:05;2.30;;;0.77;;
74974;SDS011;68459;50.836;19.138;2024-02-04T10:54:10;4.53;;;0.73;;
74974;SDS011;68459;50.836;19.138;2024-02-04T10:57:17;3.15;;;0.60;;
74974;SDS011;68459;50.836;19.138;2024-02-04T11:00:25;4.80;;;1.17;;
74974;SDS011;68459;50.836;19.138;2024-02-04T11:03:30;4.07;;;0.95;;
74974;SDS011;68459;50.836;19.138;2024-02-04T11:06:35;3.63;;;0.80;;
74974;SDS011;68459;50.836;19.138;2024-02-04T11:09:42;4.10;;;0.43;;
74974;SDS011;68459;50.836;19.138;2024-02-04T11:12:51;2.55;;;0.63;;
74974;SDS011;68459;50.836;19.138;2024-02-04T11:15:56;2.43;;;0.50;;
74974;SDS011;68459;50.836;19.138;2024-02-04T11:19:08;1.70;;;0.40;;
74974;SDS011;68459;50.836;19.138;2024-02-04T11:22:36;1.98;;;0.60;;
74974;SDS011;68459;50.836;19.138;2024-02-04T11:26:05;3.45;;;0.43;;
74974;SDS011;68459;50.836;19.138;2024-02-04T11:29:09;3.05;;;0.55;;
74974;SDS011;68459;50.836;19.138;2024-02-04T11:32:16;3.65;;;0.70;;
74974;SDS011;68459;50.836;19.138;2024-02-04T11:35:20;4.20;;;0.63;;
74974;SDS011;68459;50.836;19.138;2024-02-04T11:38:29;4.10;;;0.50;;
74974;SDS011;68459;50.836;19.138;2024-02-04T11:41:43;3.83;;;0.65;;
74974;SDS011;68459;50.836;19.138;2024-02-04T11:44:49;1.88;;;0.47;;
74974;SDS011;68459;50.836;19.138;2024-02-04T11:47:58;1.97;;;0.60;;
74974;SDS011;68459;50.836;19.138;2024-02-04T11:51:05;3.00;;;0.60;;
74974;SDS011;68459;50.836;19.138;2024-02-04T11:54:10;3.30;;;0.68;;
74974;SDS011;68459;50.836;19.138;2024-02-04T11:57:19;2.42;;;0.63;;
74974;SDS011;68459;50.836;19.138;2024-02-04T12:00:23;2.22;;;0.80;;
74974;SDS011;68459;50.836;19.138;2024-02-04T12:03:30;5.40;;;0.90;;
74974;SDS011;68459;50.836;19.138;2024-02-04T12:06:36;3.88;;;0.75;;
74974;SDS011;68459;50.836;19.138;2024-02-04T12:09:41;2.03;;;0.67;;
74974;SDS011;68459;50.836;19.138;2024-02-04T12:12:47;1.67;;;0.60;;
74974;SDS011;68459;50.836;19.138;2024-02-04T12:15:52;4.45;;;1.10;;
74974;SDS011;68459;50.836;19.138;2024-02-04T12:18:56;2.90;;;0.90;;
74974;SDS011;68459;50.836;19.138;2024-02-04T12:22:00;3.75;;;0.77;;
74974;SDS011;68459;50.836;19.138;2024-02-04T12:25:09;2.92;;;0.80;;
74974;SDS011;68459;50.836;19.138;2024-02-04T12:28:15;2.53;;;0.90;;
74974;SDS011;68459;50.836;19.138;2024-02-04T12:31:20;2.05;;;0.70;;
74974;SDS011;68459;50.836;19.138;2024-02-04T12:34:28;3.15;;;0.80;;
74974;SDS011;68459;50.836;19.138;2024-02-04T12:37:32;3.63;;;0.75;;
74974;SDS011;68459;50.836;19.138;2024-02-04T12:40:36;3.40;;;1.10;;
74974;SDS011;68459;50.836;19.138;2024-02-04T12:43:41;2.50;;;0.80;;
74974;SDS011;68459;50.836;19.138;2024-02-04T12:46:45;2.50;;;0.82;;
74974;SDS011;68459;50.836;19.138;2024-02-04T12:50:00;3.50;;;1.40;;
74974;SDS011;68459;50.836;19.138;2024-02-04T12:53:06;3.08;;;1.10;;
74974;SDS011;68459;50.836;19.138;2024-02-04T12:56:11;3.40;;;1.25;;
74974;SDS011;68459;50.836;19.138;2024-02-04T12:59:26;3.17;;;1.40;;
74974;SDS011;68459;50.836;19.138;2024-02-04T13:02:31;1.90;;;0.60;;
74974;SDS011;68459;50.836;19.138;2024-02-04T13:05:37;3.10;;;1.17;;
74974;SDS011;68459;50.836;19.138;2024-02-04T13:08:41;4.20;;;1.38;;
74974;SDS011;68459;50.836;19.138;2024-02-04T13:11:45;4.50;;;1.40;;
74974;SDS011;68459;50.836;19.138;2024-02-04T13:14:50;3.05;;;1.40;;
74974;SDS011;68459;50.836;19.138;2024-02-04T13:17:55;4.88;;;1.48;;
74974;SDS011;68459;50.836;19.138;2024-02-04T13:20:58;7.73;;;2.03;;
74974;SDS011;68459;50.836;19.138;2024-02-04T13:24:03;5.82;;;1.08;;
74974;SDS011;68459;50.836;19.138;2024-02-04T13:27:07;4.82;;;1.23;;
74974;SDS011;68459;50.836;19.138;2024-02-04T13:30:13;2.75;;;1.00;;
74974;SDS011;68459;50.836;19.138;2024-02-04T13:33:17;2.28;;;1.00;;
74974;SDS011;68459;50.836;19.138;2024-02-04T13:36:22;5.43;;;1.35;;
74974;SDS011;68459;50.836;19.138;2024-02-04T13:39:26;2.10;;;1.10;;
74974;SDS011;68459;50.836;19.138;2024-02-04T13:42:31;1.93;;;0.87;;
74974;SDS011;68459;50.836;19.138;2024-02-04T13:45:36;5.97;;;1.30;;
74974;SDS011;68459;50.836;19.138;2024-02-04T13:48:40;8.07;;;1.63;;
74974;SDS011;68459;50.836;19.138;2024-02-04T13:51:44;2.93;;;1.70;;
74974;SDS011;68459;50.836;19.138;2024-02-04T13:54:49;3.35;;;1.48;;
74974;SDS011;68459;50.836;19.138;2024-02-04T13:57:53;2.72;;;1.55;;
74974;SDS011;68459;50.836;19.138;2024-02-04T14:00:59;4.68;;;1.63;;
74974;SDS011;68459;50.836;19.138;2024-02-04T14:04:03;5.03;;;1.65;;
74974;SDS011;68459;50.836;19.138;2024-02-04T14:07:07;4.40;;;1.77;;
74974;SDS011;68459;50.836;19.138;2024-02-04T14:10:12;5.13;;;1.70;;
74974;SDS011;68459;50.836;19.138;2024-02-04T14:13:17;2.67;;;1.60;;
74974;SDS011;68459;50.836;19.138;2024-02-04T14:16:22;2.50;;;1.65;;
74974;SDS011;68459;50.836;19.138;2024-02-04T14:19:29;4.97;;;2.00;;
74974;SDS011;68459;50.836;19.138;2024-02-04T14:22:33;5.00;;;1.70;;
74974;SDS011;68459;50.836;19.138;2024-02-04T14:25:37;5.90;;;2.40;;
74974;SDS011;68459;50.836;19.138;2024-02-04T14:28:41;7.32;;;2.60;;
74974;SDS011;68459;50.836;19.138;2024-02-04T14:31:46;3.08;;;1.80;;
74974;SDS011;68459;50.836;19.138;2024-02-04T14:34:50;4.88;;;1.85;;
74974;SDS011;68459;50.836;19.138;2024-02-04T14:37:56;4.07;;;1.90;;
74974;SDS011;68459;50.836;19.138;2024-02-04T14:41:00;2.97;;;1.80;;
74974;SDS011;68459;50.836;19.138;2024-02-04T14:44:05;2.13;;;1.23;;
74974;SDS011;68459;50.836;19.138;2024-02-04T14:47:10;3.85;;;1.42;;
74974;SDS011;68459;50.836;19.138;2024-02-04T14:50:15;3.97;;;2.03;;
74974;SDS011;68459;50.836;19.138;2024-02-04T14:53:20;4.20;;;2.23;;
74974;SDS011;68459;50.836;19.138;2024-02-04T14:56:24;4.97;;;2.42;;
74974;SDS011;68459;50.836;19.138;2024-02-04T14:59:28;5.65;;;2.30;;
74974;SDS011;68459;50.836;19.138;2024-02-04T15:02:34;5.40;;;2.60;;
74974;SDS011;68459;50.836;19.138;2024-02-04T15:05:38;5.72;;;2.40;;
74974;SDS011;68459;50.836;19.138;2024-02-04T15:08:43;4.18;;;2.28;;
74974;SDS011;68459;50.836;19.138;2024-02-04T15:11:47;8.02;;;2.47;;
74974;SDS011;68459;50.836;19.138;2024-02-04T15:14:52;3.77;;;2.43;;
74974;SDS011;68459;50.836;19.138;2024-02-04T15:17:58;4.32;;;2.38;;
74974;SDS011;68459;50.836;19.138;2024-02-04T15:21:03;3.80;;;2.80;;
74974;SDS011;68459;50.836;19.138;2024-02-04T15:24:07;7.53;;;3.13;;
74974;SDS011;68459;50.836;19.138;2024-02-04T15:27:13;5.50;;;3.08;;
74974;SDS011;68459;50.836;19.138;2024-02-04T15:30:17;5.80;;;2.80;;
74974;SDS011;68459;50.836;19.138;2024-02-04T15:33:24;6.78;;;3.13;;
74974;SDS011;68459;50.836;19.138;2024-02-04T15:36:31;5.93;;;2.70;;
74974;SDS011;68459;50.836;19.138;2024-02-04T15:39:36;4.65;;;3.15;;
74974;SDS011;68459;50.836;19.138;2024-02-04T15:42:40;4.30;;;2.60;;
74974;SDS011;68459;50.836;19.138;2024-02-04T15:45:45;3.67;;;2.27;;
74974;SDS011;68459;50.836;19.138;2024-02-04T15:48:52;5.55;;;2.58;;
74974;SDS011;68459;50.836;19.138;2024-02-04T15:51:57;5.07;;;2.88;;
74974;SDS011;68459;50.836;19.138;2024-02-04T15:55:02;4.17;;;2.37;;
74974;SDS011;68459;50.836;19.138;2024-02-04T15:58:09;4.93;;;2.47;;
74974;SDS011;68459;50.836;19.138;2024-02-04T16:01:15;5.05;;;2.40;;
74974;SDS011;68459;50.836;19.138;2024-02-04T16:04:22;3.95;;;2.05;;
74974;SDS011;68459;50.836;19.138;2024-02-04T16:07:26;4.85;;;2.00;;
74974;SDS011;68459;50.836;19.138;2024-02-04T16:10:30;3.85;;;2.03;;
74974;SDS011;68459;50.836;19.138;2024-02-04T16:13:35;4.25;;;2.05;;
74974;SDS011;68459;50.836;19.138;2024-02-04T16:16:42;4.13;;;1.60;;
74974;SDS011;68459;50.836;19.138;2024-02-04T16:19:49;4.03;;;1.73;;
74974;SDS011;68459;50.836;19.138;2024-02-04T16:22:55;2.70;;;1.20;;
74974;SDS011;68459;50.836;19.138;2024-02-04T16:25:58;3.73;;;0.93;;
74974;SDS011;68459;50.836;19.138;2024-02-04T16:29:03;3.17;;;1.13;;
74974;SDS011;68459;50.836;19.138;2024-02-04T16:32:07;2.75;;;1.02;;
74974;SDS011;68459;50.836;19.138;2024-02-04T16:35:15;3.42;;;1.30;;
74974;SDS011;68459;50.836;19.138;2024-02-04T16:38:21;3.15;;;0.70;;
74974;SDS011;68459;50.836;19.138;2024-02-04T16:41:26;1.60;;;0.90;;
74974;SDS011;68459;50.836;19.138;2024-02-04T16:44:30;1.88;;;0.77;;
74974;SDS011;68459;50.836;19.138;2024-02-04T16:47:34;3.40;;;1.70;;
74974;SDS011;68459;50.836;19.138;2024-02-04T16:50:39;2.47;;;0.95;;
74974;SDS011;68459;50.836;19.138;2024-02-04T16:53:45;3.15;;;1.42;;
74974;SDS011;68459;50.836;19.138;2024-02-04T16:56:48;1.53;;;0.70;;
74974;SDS011;68459;50.836;19.138;2024-02-04T16:59:53;3.90;;;1.00;;
74974;SDS011;68459;50.836;19.138;2024-02-04T17:02:58;3.28;;;0.85;;
74974;SDS011;68459;50.836;19.138;2024-02-04T17:06:05;2.22;;;1.00;;
74974;SDS011;68459;50.836;19.138;2024-02-04T17:09:11;1.55;;;0.80;;
74974;SDS011;68459;50.836;19.138;2024-02-04T17:12:17;1.90;;;0.80;;
74974;SDS011;68459;50.836;19.138;2024-02-04T17:15:22;4.32;;;1.33;;
74974;SDS011;68459;50.836;19.138;2024-02-04T17:18:30;3.23;;;1.40;;
74974;SDS011;68459;50.836;19.138;2024-02-04T17:21:49;2.63;;;1.00;;
74974;SDS011;68459;50.836;19.138;2024-02-04T17:25:02;3.55;;;1.45;;
74974;SDS011;68459;50.836;19.138;2024-02-04T17:28:09;2.30;;;1.20;;
74974;SDS011;68459;50.836;19.138;2024-02-04T17:31:16;3.78;;;1.20;;
74974;SDS011;68459;50.836;19.138;2024-02-04T17:34:20;3.60;;;1.48;;
74974;SDS011;68459;50.836;19.138;2024-02-04T17:37:28;1.40;;;1.00;;
74974;SDS011;68459;50.836;19.138;2024-02-04T17:40:31;5.00;;;1.45;;
74974;SDS011;68459;50.836;19.138;2024-02-04T17:43:37;4.65;;;1.20;;
74974;SDS011;68459;50.836;19.138;2024-02-04T17:46:41;5.28;;;1.30;;
74974;SDS011;68459;50.836;19.138;2024-02-04T17:49:46;5.33;;;1.33;;
74974;SDS011;68459;50.836;19.138;2024-02-04T17:52:51;2.35;;;1.08;;
74974;SDS011;68459;50.836;19.138;2024-02-04T17:55:55;2.10;;;0.93;;
74974;SDS011;68459;50.836;19.138;2024-02-04T17:58:59;2.93;;;1.07;;
74974;SDS011;68459;50.836;19.138;2024-02-04T18:02:03;3.45;;;0.75;;
74974;SDS011;68459;50.836;19.138;2024-02-04T18:05:07;2.38;;;0.85;;
74974;SDS011;68459;50.836;19.138;2024-02-04T18:08:13;3.00;;;0.95;;
74974;SDS011;68459;50.836;19.138;2024-02-04T18:11:17;3.40;;;0.80;;
74974;SDS011;68459;50.836;19.138;2024-02-04T18:14:22;4.93;;;1.33;;
74974;SDS011;68459;50.836;19.138;2024-02-04T18:17:25;2.55;;;0.90;;
74974;SDS011;68459;50.836;19.138;2024-02-04T18:20:34;6.03;;;1.40;;